sensor_id;sensor_type;location;lat;lon;timestamp;pressure;altitude;pressure_sealevel;temperature;humidity
79400;BME280;68856;45.586;10.264;2023-04-25T00:00:57;98547.41;;;16.93;45.22
79400;BME280;68856;45.586;10.264;2023-04-25T00:03:23;98549.81;;;16.86;45.76
79400;BME280;68856;45.586;10.264;2023-04-25T00:05:51;98540.75;;;16.86;46.17
79400;BME280;68856;45.586;10.264;2023-04-25T00:08:18;98542.88;;;16.89;46.28
79400;BME280;68856;45.586;10.264;2023-04-25T00:10:44;98538.97;;;16.81;46.40
79400;BME280;68856;45.586;10.264;2023-04-25T00:13:10;98539.28;;;16.79;46.40
79400;BME280;68856;45.586;10.264;2023-04-25T00:15:37;98533.88;;;16.66;47.18
79400;BME280;68856;45.586;10.264;2023-04-25T00:18:04;98536.41;;;16.62;47.65
79400;BME280;68856;45.586;10.264;2023-04-25T00:20:31;98536.06;;;16.55;47.45
79400;BME280;68856;45.586;10.264;2023-04-25T00:22:58;98542.34;;;16.56;47.93
79400;BME280;68856;45.586;10.264;2023-04-25T00:25:24;98528.88;;;16.68;47.78
79400;BME280;68856;45.586;10.264;2023-04-25T00:27:50;98534.69;;;16.66;47.82
79400;BME280;68856;45.586;10.264;2023-04-25T00:30:16;98527.59;;;16.52;48.67
79400;BME280;68856;45.586;10.264;2023-04-25T00:32:43;98518.50;;;16.56;49.34
79400;BME280;68856;45.586;10.264;2023-04-25T00:35:10;98532.28;;;16.29;49.73
79400;BME280;68856;45.586;10.264;2023-04-25T00:37:36;98517.09;;;16.45;49.79
79400;BME280;68856;45.586;10.264;2023-04-25T00:40:05;98516.50;;;16.12;50.88
79400;BME280;68856;45.586;10.264;2023-04-25T00:42:32;98509.53;;;16.51;50.23
79400;BME280;68856;45.586;10.264;2023-04-25T00:44:59;98514.00;;;16.47;50.18
79400;BME280;68856;45.586;10.264;2023-04-25T00:47:26;98503.78;;;16.52;49.62
79400;BME280;68856;45.586;10.264;2023-04-25T00:49:54;98495.41;;;16.57;49.69
79400;BME280;68856;45.586;10.264;2023-04-25T00:52:20;98497.91;;;16.45;49.22
79400;BME280;68856;45.586;10.264;2023-04-25T00:54:47;98506.59;;;16.47;49.26
79400;BME280;68856;45.586;10.264;2023-04-25T00:57:13;98491.88;;;16.57;49.66
79400;BME280;68856;45.586;10.264;2023-04-25T00:59:43;98497.56;;;16.47;50.05
79400;BME280;68856;45.586;10.264;2023-04-25T01:02:11;98498.84;;;16.63;48.66
79400;BME280;68856;45.586;10.264;2023-04-25T01:04:38;98494.63;;;16.57;49.47
79400;BME280;68856;45.586;10.264;2023-04-25T01:07:04;98501.31;;;16.51;49.95
79400;BME280;68856;45.586;10.264;2023-04-25T01:09:31;98490.94;;;16.61;49.10
79400;BME280;68856;45.586;10.264;2023-04-25T01:12:00;98498.84;;;16.63;49.90
79400;BME280;68856;45.586;10.264;2023-04-25T01:14:27;98503.78;;;16.74;50.59
79400;BME280;68856;45.586;10.264;2023-04-25T01:16:53;98516.03;;;16.77;51.13
79400;BME280;68856;45.586;10.264;2023-04-25T01:19:20;98509.47;;;16.42;50.42
79400;BME280;68856;45.586;10.264;2023-04-25T01:21:46;98513.03;;;16.65;49.69
79400;BME280;68856;45.586;10.264;2023-04-25T01:24:13;98519.59;;;16.77;48.01
79400;BME280;68856;45.586;10.264;2023-04-25T01:26:41;98513.38;;;16.63;49.30
79400;BME280;68856;45.586;10.264;2023-04-25T01:29:10;98522.22;;;16.60;51.03
79400;BME280;68856;45.586;10.264;2023-04-25T01:31:37;98521.59;;;16.63;51.30
79400;BME280;68856;45.586;10.264;2023-04-25T01:34:03;98516.19;;;16.72;51.01
79400;BME280;68856;45.586;10.264;2023-04-25T01:36:30;98519.22;;;16.70;49.13
79400;BME280;68856;45.586;10.264;2023-04-25T01:38:57;98524.38;;;16.50;49.62
79400;BME280;68856;45.586;10.264;2023-04-25T01:41:23;98526.41;;;16.58;50.32
79400;BME280;68856;45.586;10.264;2023-04-25T01:43:50;98522.97;;;16.52;51.38
79400;BME280;68856;45.586;10.264;2023-04-25T01:46:17;98524.50;;;16.45;51.35
79400;BME280;68856;45.586;10.264;2023-04-25T01:48:43;98528.19;;;16.62;51.03
79400;BME280;68856;45.586;10.264;2023-04-25T01:51:09;98535.41;;;16.36;51.47
79400;BME280;68856;45.586;10.264;2023-04-25T01:53:38;98534.97;;;16.43;51.63
79400;BME280;68856;45.586;10.264;2023-04-25T01:56:04;98528.75;;;16.51;51.55
79400;BME280;68856;45.586;10.264;2023-04-25T01:58:31;98531.41;;;16.42;51.46
79400;BME280;68856;45.586;10.264;2023-04-25T02:00:57;98537.50;;;16.39;51.41
79400;BME280;68856;45.586;10.264;2023-04-25T02:03:23;98523.25;;;16.51;51.23
79400;BME280;68856;45.586;10.264;2023-04-25T02:05:50;98520.31;;;16.47;51.65
79400;BME280;68856;45.586;10.264;2023-04-25T02:08:17;98522.38;;;16.42;51.56
79400;BME280;68856;45.586;10.264;2023-04-25T02:10:43;98523.34;;;16.23;51.85
79400;BME280;68856;45.586;10.264;2023-04-25T02:13:10;98526.13;;;16.46;51.80
79400;BME280;68856;45.586;10.264;2023-04-25T02:15:36;98530.84;;;16.32;51.97
79400;BME280;68856;45.586;10.264;2023-04-25T02:18:02;98533.16;;;16.38;52.12
79400;BME280;68856;45.586;10.264;2023-04-25T02:20:30;98515.28;;;16.41;52.37
79400;BME280;68856;45.586;10.264;2023-04-25T02:22:57;98509.09;;;16.35;51.79
79400;BME280;68856;45.586;10.264;2023-04-25T02:25:23;98502.88;;;16.43;51.93
79400;BME280;68856;45.586;10.264;2023-04-25T02:27:50;98507.44;;;16.48;52.06
79400;BME280;68856;45.586;10.264;2023-04-25T02:30:17;98504.72;;;16.34;51.93
79400;BME280;68856;45.586;10.264;2023-04-25T02:32:43;98499.91;;;16.53;52.07
79400;BME280;68856;45.586;10.264;2023-04-25T02:35:10;98497.44;;;16.52;52.09
79400;BME280;68856;45.586;10.264;2023-04-25T02:37:38;98492.09;;;16.47;52.39
79400;BME280;68856;45.586;10.264;2023-04-25T02:40:05;98488.94;;;16.53;52.47
79400;BME280;68856;45.586;10.264;2023-04-25T02:42:31;98482.75;;;16.48;52.99
79400;BME280;68856;45.586;10.264;2023-04-25T02:44:57;98474.59;;;16.34;53.43
79400;BME280;68856;45.586;10.264;2023-04-25T02:47:24;98477.44;;;16.29;51.68
79400;BME280;68856;45.586;10.264;2023-04-25T02:49:50;98477.75;;;16.50;52.86
79400;BME280;68856;45.586;10.264;2023-04-25T02:52:16;98480.09;;;16.56;52.15
79400;BME280;68856;45.586;10.264;2023-04-25T02:54:42;98480.78;;;16.62;52.59
79400;BME280;68856;45.586;10.264;2023-04-25T02:57:09;98475.25;;;16.53;52.66
79400;BME280;68856;45.586;10.264;2023-04-25T02:59:35;98481.13;;;16.47;52.63
79400;BME280;68856;45.586;10.264;2023-04-25T03:02:01;98488.44;;;16.51;52.97
79400;BME280;68856;45.586;10.264;2023-04-25T03:04:28;98479.78;;;16.36;52.75
79400;BME280;68856;45.586;10.264;2023-04-25T03:06:54;98479.19;;;16.47;52.21
79400;BME280;68856;45.586;10.264;2023-04-25T03:09:21;98460.81;;;16.48;51.86
79400;BME280;68856;45.586;10.264;2023-04-25T03:11:47;98475.59;;;16.38;51.85
79400;BME280;68856;45.586;10.264;2023-04-25T03:14:13;98473.72;;;16.47;51.58
79400;BME280;68856;45.586;10.264;2023-04-25T03:16:40;98474.91;;;16.33;52.60
79400;BME280;68856;45.586;10.264;2023-04-25T03:19:06;98480.09;;;16.56;52.04
79400;BME280;68856;45.586;10.264;2023-04-25T03:21:34;98483.97;;;16.55;51.65
79400;BME280;68856;45.586;10.264;2023-04-25T03:24:02;98499.78;;;16.58;52.55
79400;BME280;68856;45.586;10.264;2023-04-25T03:26:29;98504.81;;;16.65;53.06
79400;BME280;68856;45.586;10.264;2023-04-25T03:28:55;98506.94;;;16.68;54.16
79400;BME280;68856;45.586;10.264;2023-04-25T03:31:22;98517.47;;;16.74;54.74
79400;BME280;68856;45.586;10.264;2023-04-25T03:33:48;98521.00;;;16.75;57.07
79400;BME280;68856;45.586;10.264;2023-04-25T03:36:14;98523.38;;;16.68;57.50
79400;BME280;68856;45.586;10.264;2023-04-25T03:38:41;98522.84;;;16.57;57.51
79400;BME280;68856;45.586;10.264;2023-04-25T03:41:10;98525.56;;;16.35;59.12
79400;BME280;68856;45.586;10.264;2023-04-25T03:43:36;98526.50;;;16.31;60.50
79400;BME280;68856;45.586;10.264;2023-04-25T03:46:02;98526.63;;;16.48;59.74
79400;BME280;68856;45.586;10.264;2023-04-25T03:48:29;98532.91;;;16.48;59.85
79400;BME280;68856;45.586;10.264;2023-04-25T03:50:55;98535.66;;;16.48;59.84
79400;BME280;68856;45.586;10.264;2023-04-25T03:53:21;98553.72;;;16.49;59.12
79400;BME280;68856;45.586;10.264;2023-04-25T03:55:48;98558.84;;;16.29;58.91
79400;BME280;68856;45.586;10.264;2023-04-25T03:58:14;98570.91;;;16.41;60.61
79400;BME280;68856;45.586;10.264;2023-04-25T04:00:40;98572.44;;;16.34;60.94
79400;BME280;68856;45.586;10.264;2023-04-25T04:03:07;98579.06;;;16.33;59.28
79400;BME280;68856;45.586;10.264;2023-04-25T04:05:33;98589.72;;;16.34;61.21
79400;BME280;68856;45.586;10.264;2023-04-25T04:07:59;98594.00;;;16.27;60.23
79400;BME280;68856;45.586;10.264;2023-04-25T04:10:25;98596.44;;;16.28;60.83
79400;BME280;68856;45.586;10.264;2023-04-25T04:12:52;98600.91;;;16.10;62.03
79400;BME280;68856;45.586;10.264;2023-04-25T04:15:18;98612.09;;;16.14;62.86
79400;BME280;68856;45.586;10.264;2023-04-25T04:17:44;98600.03;;;16.01;63.97
79400;BME280;68856;45.586;10.264;2023-04-25T04:20:11;98600.88;;;15.88;64.85
79400;BME280;68856;45.586;10.264;2023-04-25T04:22:37;98591.53;;;15.76;64.95
79400;BME280;68856;45.586;10.264;2023-04-25T04:25:04;98591.31;;;15.99;64.65
79400;BME280;68856;45.586;10.264;2023-04-25T04:27:31;98592.66;;;15.61;61.13
79400;BME280;68856;45.586;10.264;2023-04-25T04:29:58;98607.25;;;15.56;61.86
79400;BME280;68856;45.586;10.264;2023-04-25T04:32:24;98611.63;;;15.57;61.51
79400;BME280;68856;45.586;10.264;2023-04-25T04:34:51;98627.16;;;15.76;60.79
79400;BME280;68856;45.586;10.264;2023-04-25T04:37:18;98622.06;;;15.83;59.31
79400;BME280;68856;45.586;10.264;2023-04-25T04:39:44;98620.75;;;15.80;60.38
79400;BME280;68856;45.586;10.264;2023-04-25T04:42:11;98607.03;;;15.67;59.00
79400;BME280;68856;45.586;10.264;2023-04-25T04:44:37;98597.22;;;15.66;59.10
79400;BME280;68856;45.586;10.264;2023-04-25T04:47:05;98594.78;;;15.64;58.44
79400;BME280;68856;45.586;10.264;2023-04-25T04:49:32;98591.84;;;15.47;58.74
79400;BME280;68856;45.586;10.264;2023-04-25T04:51:58;98596.28;;;15.43;56.94
79400;BME280;68856;45.586;10.264;2023-04-25T04:54:26;98598.81;;;15.39;56.58
79400;BME280;68856;45.586;10.264;2023-04-25T04:56:53;98598.78;;;15.12;56.64
79400;BME280;68856;45.586;10.264;2023-04-25T04:59:19;98587.94;;;15.07;56.54
79400;BME280;68856;45.586;10.264;2023-04-25T05:01:45;98587.09;;;15.20;54.61
79400;BME280;68856;45.586;10.264;2023-04-25T05:04:12;98609.53;;;15.36;56.86
79400;BME280;68856;45.586;10.264;2023-04-25T05:06:39;98606.56;;;15.19;53.52
79400;BME280;68856;45.586;10.264;2023-04-25T05:09:05;98602.44;;;15.35;57.30
79400;BME280;68856;45.586;10.264;2023-04-25T05:11:32;98600.88;;;15.47;59.98
79400;BME280;68856;45.586;10.264;2023-04-25T05:13:58;98604.81;;;15.55;60.49
79400;BME280;68856;45.586;10.264;2023-04-25T05:16:24;98598.84;;;15.53;60.71
79400;BME280;68856;45.586;10.264;2023-04-25T05:18:51;98587.97;;;15.62;58.45
79400;BME280;68856;45.586;10.264;2023-04-25T05:21:18;98592.22;;;15.40;58.84
79400;BME280;68856;45.586;10.264;2023-04-25T05:23:44;98584.13;;;15.35;58.07
79400;BME280;68856;45.586;10.264;2023-04-25T05:26:10;98600.56;;;15.03;59.03
79400;BME280;68856;45.586;10.264;2023-04-25T05:28:40;98598.34;;;15.05;57.90
79400;BME280;68856;45.586;10.264;2023-04-25T05:31:07;98586.56;;;14.91;58.81
79400;BME280;68856;45.586;10.264;2023-04-25T05:33:35;98570.75;;;14.88;58.50
79400;BME280;68856;45.586;10.264;2023-04-25T05:36:02;98564.59;;;14.64;58.96
79400;BME280;68856;45.586;10.264;2023-04-25T05:38:28;98556.09;;;14.65;57.94
79400;BME280;68856;45.586;10.264;2023-04-25T05:40:54;98562.09;;;14.49;59.24
79400;BME280;68856;45.586;10.264;2023-04-25T05:43:21;98554.34;;;14.56;59.49
79400;BME280;68856;45.586;10.264;2023-04-25T05:45:47;98541.13;;;14.63;59.57
79400;BME280;68856;45.586;10.264;2023-04-25T05:48:13;98540.63;;;14.74;59.71
79400;BME280;68856;45.586;10.264;2023-04-25T05:50:39;98548.38;;;14.86;58.80
79400;BME280;68856;45.586;10.264;2023-04-25T05:53:06;98555.75;;;14.53;59.91
79400;BME280;68856;45.586;10.264;2023-04-25T05:55:32;98556.91;;;14.98;60.70
79400;BME280;68856;45.586;10.264;2023-04-25T05:57:58;98554.28;;;15.07;61.14
79400;BME280;68856;45.586;10.264;2023-04-25T06:00:25;98546.78;;;15.26;61.59
79400;BME280;68856;45.586;10.264;2023-04-25T06:02:51;98551.28;;;15.35;61.15
79400;BME280;68856;45.586;10.264;2023-04-25T06:05:17;98554.13;;;15.30;61.79
79400;BME280;68856;45.586;10.264;2023-04-25T06:07:43;98544.78;;;15.31;62.63
79400;BME280;68856;45.586;10.264;2023-04-25T06:10:10;98541.34;;;15.39;62.60
79400;BME280;68856;45.586;10.264;2023-04-25T06:12:36;98532.91;;;15.36;62.97
79400;BME280;68856;45.586;10.264;2023-04-25T06:15:05;98538.81;;;15.43;61.94
79400;BME280;68856;45.586;10.264;2023-04-25T06:17:31;98536.56;;;15.31;62.37
79400;BME280;68856;45.586;10.264;2023-04-25T06:19:57;98543.25;;;15.39;62.69
79400;BME280;68856;45.586;10.264;2023-04-25T06:22:24;98539.91;;;15.28;64.69
79400;BME280;68856;45.586;10.264;2023-04-25T06:24:50;98532.41;;;15.20;63.08
79400;BME280;68856;45.586;10.264;2023-04-25T06:27:16;98524.00;;;15.30;60.35
79400;BME280;68856;45.586;10.264;2023-04-25T06:29:42;98523.19;;;15.30;61.90
79400;BME280;68856;45.586;10.264;2023-04-25T06:32:08;98520.25;;;15.40;63.32
79400;BME280;68856;45.586;10.264;2023-04-25T06:34:35;98519.56;;;15.48;61.70
79400;BME280;68856;45.586;10.264;2023-04-25T06:37:01;98523.91;;;15.49;62.97
79400;BME280;68856;45.586;10.264;2023-04-25T06:39:27;98520.16;;;15.45;63.42
79400;BME280;68856;45.586;10.264;2023-04-25T06:41:54;98520.19;;;15.58;61.55
79400;BME280;68856;45.586;10.264;2023-04-25T06:44:20;98518.72;;;15.34;60.12
79400;BME280;68856;45.586;10.264;2023-04-25T06:46:49;98520.13;;;14.90;62.72
79400;BME280;68856;45.586;10.264;2023-04-25T06:49:15;98514.78;;;15.40;61.88
79400;BME280;68856;45.586;10.264;2023-04-25T06:51:41;98520.41;;;15.48;64.02
79400;BME280;68856;45.586;10.264;2023-04-25T06:54:07;98522.28;;;15.34;64.73
79400;BME280;68856;45.586;10.264;2023-04-25T06:56:34;98521.97;;;15.22;66.43
79400;BME280;68856;45.586;10.264;2023-04-25T06:59:00;98523.72;;;15.45;65.01
79400;BME280;68856;45.586;10.264;2023-04-25T07:01:26;98513.16;;;15.39;63.45
79400;BME280;68856;45.586;10.264;2023-04-25T07:03:53;98517.50;;;15.67;63.08
79400;BME280;68856;45.586;10.264;2023-04-25T07:06:19;98515.28;;;15.69;63.44
79400;BME280;68856;45.586;10.264;2023-04-25T07:08:45;98516.50;;;15.77;62.36
79400;BME280;68856;45.586;10.264;2023-04-25T07:11:11;98510.53;;;15.61;62.83
79400;BME280;68856;45.586;10.264;2023-04-25T07:13:38;98506.44;;;15.72;62.23
79400;BME280;68856;45.586;10.264;2023-04-25T07:16:04;98520.56;;;15.79;62.17
79400;BME280;68856;45.586;10.264;2023-04-25T07:18:30;98512.75;;;15.73;63.25
79400;BME280;68856;45.586;10.264;2023-04-25T07:20:57;98519.16;;;15.68;62.56
79400;BME280;68856;45.586;10.264;2023-04-25T07:23:23;98516.50;;;15.63;61.36
79400;BME280;68856;45.586;10.264;2023-04-25T07:25:49;98510.91;;;15.82;61.76
79400;BME280;68856;45.586;10.264;2023-04-25T07:28:16;98513.25;;;15.75;62.40
79400;BME280;68856;45.586;10.264;2023-04-25T07:30:42;98528.03;;;15.87;60.13
79400;BME280;68856;45.586;10.264;2023-04-25T07:33:08;98528.84;;;15.88;61.39
79400;BME280;68856;45.586;10.264;2023-04-25T07:35:34;98530.03;;;15.95;60.52
79400;BME280;68856;45.586;10.264;2023-04-25T07:38:01;98533.09;;;15.94;59.93
79400;BME280;68856;45.586;10.264;2023-04-25T07:40:27;98540.38;;;15.98;60.16
79400;BME280;68856;45.586;10.264;2023-04-25T07:42:54;98547.56;;;16.08;59.94
79400;BME280;68856;45.586;10.264;2023-04-25T07:45:20;98542.88;;;16.08;60.56
79400;BME280;68856;45.586;10.264;2023-04-25T07:47:46;98552.03;;;16.04;60.59
79400;BME280;68856;45.586;10.264;2023-04-25T07:50:13;98553.78;;;16.00;57.14
79400;BME280;68856;45.586;10.264;2023-04-25T07:52:39;98553.56;;;16.10;57.81
79400;BME280;68856;45.586;10.264;2023-04-25T07:55:06;98555.25;;;16.19;56.50
79400;BME280;68856;45.586;10.264;2023-04-25T07:57:32;98557.91;;;16.11;54.63
79400;BME280;68856;45.586;10.264;2023-04-25T07:59:58;98560.13;;;16.09;54.08
79400;BME280;68856;45.586;10.264;2023-04-25T08:02:24;98559.44;;;16.03;55.66
79400;BME280;68856;45.586;10.264;2023-04-25T08:04:54;98558.00;;;16.19;55.54
79400;BME280;68856;45.586;10.264;2023-04-25T08:07:20;98558.13;;;16.37;57.20
79400;BME280;68856;45.586;10.264;2023-04-25T08:09:47;98555.72;;;16.35;56.60
79400;BME280;68856;45.586;10.264;2023-04-25T08:12:13;98564.75;;;16.36;56.33
79400;BME280;68856;45.586;10.264;2023-04-25T08:14:39;98567.41;;;16.49;57.87
79400;BME280;68856;45.586;10.264;2023-04-25T08:17:05;98576.78;;;16.48;55.78
79400;BME280;68856;45.586;10.264;2023-04-25T08:19:32;98579.50;;;16.62;55.90
79400;BME280;68856;45.586;10.264;2023-04-25T08:21:58;98583.22;;;16.66;57.15
79400;BME280;68856;45.586;10.264;2023-04-25T08:24:24;98590.13;;;16.41;55.31
79400;BME280;68856;45.586;10.264;2023-04-25T08:26:51;98589.41;;;16.71;58.51
79400;BME280;68856;45.586;10.264;2023-04-25T08:29:18;98592.84;;;16.77;58.29
79400;BME280;68856;45.586;10.264;2023-04-25T08:31:44;98595.03;;;16.66;57.54
79400;BME280;68856;45.586;10.264;2023-04-25T08:34:10;98595.47;;;16.46;56.70
79400;BME280;68856;45.586;10.264;2023-04-25T08:36:37;98592.53;;;16.56;55.59
79400;BME280;68856;45.586;10.264;2023-04-25T08:39:03;98598.94;;;16.74;55.43
79400;BME280;68856;45.586;10.264;2023-04-25T08:41:29;98604.91;;;16.54;55.31
79400;BME280;68856;45.586;10.264;2023-04-25T08:43:56;98597.56;;;16.49;56.49
79400;BME280;68856;45.586;10.264;2023-04-25T08:46:26;98601.44;;;16.48;55.46
79400;BME280;68856;45.586;10.264;2023-04-25T08:48:53;98601.44;;;16.62;55.83
79400;BME280;68856;45.586;10.264;2023-04-25T08:51:23;98608.41;;;16.68;54.50
79400;BME280;68856;45.586;10.264;2023-04-25T08:53:52;98602.63;;;16.92;55.26
79400;BME280;68856;45.586;10.264;2023-04-25T08:56:18;98611.16;;;16.90;53.88
79400;BME280;68856;45.586;10.264;2023-04-25T08:58:51;98604.09;;;16.75;50.90
79400;BME280;68856;45.586;10.264;2023-04-25T09:01:18;98613.09;;;16.90;51.80
79400;BME280;68856;45.586;10.264;2023-04-25T09:03:45;98615.97;;;16.85;51.54
79400;BME280;68856;45.586;10.264;2023-04-25T09:06:13;98610.38;;;16.98;53.20
79400;BME280;68856;45.586;10.264;2023-04-25T09:08:40;98606.19;;;16.92;51.22
79400;BME280;68856;45.586;10.264;2023-04-25T09:11:07;98610.03;;;17.13;50.54
79400;BME280;68856;45.586;10.264;2023-04-25T09:13:33;98616.50;;;17.17;50.82
79400;BME280;68856;45.586;10.264;2023-04-25T09:16:00;98612.91;;;16.86;50.54
79400;BME280;68856;45.586;10.264;2023-04-25T09:18:27;98617.78;;;16.89;50.98
79400;BME280;68856;45.586;10.264;2023-04-25T09:20:56;98613.53;;;16.83;51.09
79400;BME280;68856;45.586;10.264;2023-04-25T09:23:23;98616.22;;;16.74;51.38
79400;BME280;68856;45.586;10.264;2023-04-25T09:25:52;98615.59;;;17.00;51.23
79400;BME280;68856;45.586;10.264;2023-04-25T09:28:25;98612.16;;;16.94;49.32
79400;BME280;68856;45.586;10.264;2023-04-25T09:30:56;98616.34;;;16.69;49.95
79400;BME280;68856;45.586;10.264;2023-04-25T09:33:28;98619.41;;;16.90;49.64
79400;BME280;68856;45.586;10.264;2023-04-25T09:36:03;98620.63;;;17.06;50.05
79400;BME280;68856;45.586;10.264;2023-04-25T09:38:31;98613.69;;;17.09;50.04
79400;BME280;68856;45.586;10.264;2023-04-25T09:40:58;98621.72;;;17.27;50.07
79400;BME280;68856;45.586;10.264;2023-04-25T09:43:27;98609.50;;;17.33;50.07
79400;BME280;68856;45.586;10.264;2023-04-25T09:45:54;98616.84;;;17.47;50.77
79400;BME280;68856;45.586;10.264;2023-04-25T09:48:23;98614.78;;;17.30;49.10
79400;BME280;68856;45.586;10.264;2023-04-25T09:51:09;98620.97;;;17.35;47.94
79400;BME280;68856;45.586;10.264;2023-04-25T09:53:37;98624.03;;;17.34;47.28
79400;BME280;68856;45.586;10.264;2023-04-25T09:56:05;98625.44;;;17.01;47.35
79400;BME280;68856;45.586;10.264;2023-04-25T09:58:33;98628.41;;;16.91;47.36
79400;BME280;68856;45.586;10.264;2023-04-25T10:01:02;98624.56;;;16.92;47.44
79400;BME280;68856;45.586;10.264;2023-04-25T10:03:33;98619.84;;;17.06;46.30
79400;BME280;68856;45.586;10.264;2023-04-25T10:06:00;98622.88;;;17.04;47.04
79400;BME280;68856;45.586;10.264;2023-04-25T10:08:37;98627.25;;;17.05;47.05
79400;BME280;68856;45.586;10.264;2023-04-25T10:11:05;98622.94;;;16.91;47.04
79400;BME280;68856;45.586;10.264;2023-04-25T10:13:33;98618.75;;;17.15;46.73
79400;BME280;68856;45.586;10.264;2023-04-25T10:16:02;98618.91;;;17.19;46.51
79400;BME280;68856;45.586;10.264;2023-04-25T10:18:30;98614.84;;;17.38;46.98
79400;BME280;68856;45.586;10.264;2023-04-25T10:20:59;98616.34;;;17.44;47.54
79400;BME280;68856;45.586;10.264;2023-04-25T10:23:26;98617.47;;;17.43;46.61
79400;BME280;68856;45.586;10.264;2023-04-25T10:25:53;98625.16;;;17.33;45.33
79400;BME280;68856;45.586;10.264;2023-04-25T10:28:20;98615.66;;;17.39;45.55
79400;BME280;68856;45.586;10.264;2023-04-25T10:31:00;98613.06;;;17.42;44.53
79400;BME280;68856;45.586;10.264;2023-04-25T10:33:39;98623.66;;;17.27;44.48
79400;BME280;68856;45.586;10.264;2023-04-25T10:36:19;98621.94;;;17.62;45.10
79400;BME280;68856;45.586;10.264;2023-04-25T10:38:48;98618.41;;;17.39;44.75
79400;BME280;68856;45.586;10.264;2023-04-25T10:41:19;98629.53;;;17.34;45.63
79400;BME280;68856;45.586;10.264;2023-04-25T10:43:49;98623.63;;;17.49;45.86
79400;BME280;68856;45.586;10.264;2023-04-25T10:46:25;98623.09;;;17.16;46.14
79400;BME280;68856;45.586;10.264;2023-04-25T10:51:23;98637.81;;;17.73;45.72
79400;BME280;68856;45.586;10.264;2023-04-25T10:54:00;98627.47;;;17.70;44.44
79400;BME280;68856;45.586;10.264;2023-04-25T10:56:29;98622.81;;;17.49;45.12
79400;BME280;68856;45.586;10.264;2023-04-25T10:59:17;98627.38;;;17.53;45.67
79400;BME280;68856;45.586;10.264;2023-04-25T11:01:45;98622.00;;;17.17;46.14
79400;BME280;68856;45.586;10.264;2023-04-25T11:04:32;98617.72;;;17.33;45.22
79400;BME280;68856;45.586;10.264;2023-04-25T11:07:34;98619.25;;;17.48;45.73
79400;BME280;68856;45.586;10.264;2023-04-25T11:10:04;98621.31;;;17.42;47.40
79400;BME280;68856;45.586;10.264;2023-04-25T11:12:31;98616.94;;;17.64;45.42
79400;BME280;68856;45.586;10.264;2023-04-25T11:15:07;98614.34;;;17.06;46.40
79400;BME280;68856;45.586;10.264;2023-04-25T11:17:34;98605.72;;;17.52;46.85
79400;BME280;68856;45.586;10.264;2023-04-25T11:20:00;98608.81;;;17.59;46.24
79400;BME280;68856;45.586;10.264;2023-04-25T11:22:28;98605.31;;;17.67;45.49
79400;BME280;68856;45.586;10.264;2023-04-25T11:24:54;98603.38;;;17.67;44.67
79400;BME280;68856;45.586;10.264;2023-04-25T11:27:21;98599.47;;;17.60;45.03
79400;BME280;68856;45.586;10.264;2023-04-25T11:29:47;98593.38;;;17.71;44.93
79400;BME280;68856;45.586;10.264;2023-04-25T11:32:15;98593.47;;;17.58;44.73
79400;BME280;68856;45.586;10.264;2023-04-25T11:34:44;98585.59;;;17.73;44.71
79400;BME280;68856;45.586;10.264;2023-04-25T11:37:11;98580.44;;;17.72;43.65
79400;BME280;68856;45.586;10.264;2023-04-25T11:39:42;98576.28;;;17.91;43.65
79400;BME280;68856;45.586;10.264;2023-04-25T11:42:09;98567.59;;;17.98;44.59
79400;BME280;68856;45.586;10.264;2023-04-25T11:44:35;98562.53;;;17.91;43.85
79400;BME280;68856;45.586;10.264;2023-04-25T11:47:03;98567.75;;;18.10;43.71
79400;BME280;68856;45.586;10.264;2023-04-25T11:49:32;98570.94;;;17.86;43.74
79400;BME280;68856;45.586;10.264;2023-04-25T11:51:59;98581.28;;;17.89;44.41
79400;BME280;68856;45.586;10.264;2023-04-25T11:54:25;98580.22;;;18.08;45.31
79400;BME280;68856;45.586;10.264;2023-04-25T11:56:52;98576.34;;;18.09;44.50
79400;BME280;68856;45.586;10.264;2023-04-25T11:59:24;98582.34;;;18.19;43.98
79400;BME280;68856;45.586;10.264;2023-04-25T12:01:51;98582.75;;;17.87;43.82
79400;BME280;68856;45.586;10.264;2023-04-25T12:04:26;98580.59;;;17.67;43.99
79400;BME280;68856;45.586;10.264;2023-04-25T12:06:53;98584.03;;;17.89;44.19
79400;BME280;68856;45.586;10.264;2023-04-25T12:09:29;98569.69;;;18.01;45.58
79400;BME280;68856;45.586;10.264;2023-04-25T12:11:56;98573.41;;;18.05;44.81
79400;BME280;68856;45.586;10.264;2023-04-25T12:14:34;98573.84;;;17.42;44.04
79400;BME280;68856;45.586;10.264;2023-04-25T12:17:03;98568.31;;;17.64;44.27
79400;BME280;68856;45.586;10.264;2023-04-25T12:19:34;98562.69;;;17.78;44.58
79400;BME280;68856;45.586;10.264;2023-04-25T12:22:02;98569.50;;;17.80;44.92
79400;BME280;68856;45.586;10.264;2023-04-25T12:24:29;98577.84;;;17.67;45.23
79400;BME280;68856;45.586;10.264;2023-04-25T12:27:05;98579.19;;;17.78;45.86
79400;BME280;68856;45.586;10.264;2023-04-25T12:29:33;98579.97;;;17.70;45.54
79400;BME280;68856;45.586;10.264;2023-04-25T12:32:00;98590.28;;;17.64;45.35
79400;BME280;68856;45.586;10.264;2023-04-25T12:34:28;98594.13;;;17.63;45.56
79400;BME280;68856;45.586;10.264;2023-04-25T12:36:55;98593.72;;;17.48;44.79
79400;BME280;68856;45.586;10.264;2023-04-25T12:39:23;98606.97;;;17.45;45.14
79400;BME280;68856;45.586;10.264;2023-04-25T12:41:51;98607.28;;;17.44;44.54
79400;BME280;68856;45.586;10.264;2023-04-25T12:44:20;98609.91;;;17.49;44.88
79400;BME280;68856;45.586;10.264;2023-04-25T12:46:47;98627.44;;;17.62;44.90
79400;BME280;68856;45.586;10.264;2023-04-25T12:49:14;98633.72;;;17.62;51.03
79400;BME280;68856;45.586;10.264;2023-04-25T12:51:40;98642.13;;;17.66;55.12
79400;BME280;68856;45.586;10.264;2023-04-25T12:54:07;98645.88;;;17.39;57.30